Time;durP1;ratioP1;P1;durP2;ratioP2;P2;SDS_P1;SDS_P2;PMS_P1;PMS_P2;Temp;Humidity;BMP_temperature;BMP_pressure;BME280_temperature;BME280_humidity;BME280_pressure;Samples;Min_cycle;Max_cycle;Signal;HPM_P1;HPM_P2
2022/04/06 00:01:18;;;;;;;13.38;4.18;;;8.60;99.90;;;;;;4987489;28;20050;-80
2022/04/06 00:03:44;;;;;;;14.70;5.00;;;8.60;99.90;;;;;;4955051;28;20054;-79
2022/04/06 00:06:10;;;;;;;13.68;4.55;;;8.60;99.90;;;;;;4972002;28;20057;-79
2022/04/06 00:08:35;;;;;;;15.73;4.80;;;8.60;99.90;;;;;;4987520;28;20495;-79
2022/04/06 00:11:02;;;;;;;11.15;4.35;;;9.10;99.90;;;;;;4969856;28;20069;-79
2022/04/06 00:13:28;;;;;;;14.43;4.25;;;8.60;99.90;;;;;;4955945;28;20054;-81
2022/04/06 00:15:54;;;;;;;16.15;4.70;;;8.60;99.90;;;;;;4955357;28;20065;-81
2022/04/06 00:18:20;;;;;;;14.25;3.88;;;8.60;99.90;;;;;;4986557;28;20054;-80
2022/04/06 00:20:46;;;;;;;14.48;4.22;;;8.70;99.90;;;;;;4970137;28;20507;-81
2022/04/06 00:23:12;;;;;;;18.13;5.03;;;8.70;99.90;;;;;;4985832;28;20069;-79
2022/04/06 00:25:37;;;;;;;15.45;4.50;;;8.70;99.90;;;;;;4955531;28;20499;-79
2022/04/06 00:28:03;;;;;;;14.13;4.15;;;8.70;99.90;;;;;;4970666;28;20451;-79
2022/04/06 00:30:29;;;;;;;11.13;3.45;;;8.70;99.90;;;;;;4986503;28;20046;-80
2022/04/06 00:32:55;;;;;;;16.27;3.40;;;8.70;99.90;;;;;;4972340;28;20498;-78
2022/04/06 00:35:29;;;;;;;12.25;3.80;;;8.70;99.90;;;;;;4954873;28;20077;-78
2022/04/06 00:38:00;;;;;;;14.18;4.03;;;8.80;99.90;;;;;;4986356;28;20053;-78
2022/04/06 00:40:26;;;;;;;13.32;3.55;;;8.70;99.90;;;;;;4985963;28;20050;-78
2022/04/06 00:42:53;;;;;;;11.00;3.35;;;8.70;99.90;;;;;;4987108;28;20247;-78
2022/04/06 00:45:23;;;;;;;12.10;3.53;;;8.80;99.90;;;;;;4954977;28;20058;-78
2022/04/06 00:47:50;;;;;;;16.40;3.88;;;8.80;99.90;;;;;;4985945;28;20058;-78
2022/04/06 00:50:17;;;;;;;13.68;3.50;;;8.80;99.90;;;;;;4985101;28;20058;-79
2022/04/06 00:52:43;;;;;;;10.23;3.42;;;8.80;99.90;;;;;;4984609;28;20483;-78
2022/04/06 00:55:11;;;;;;;11.35;3.72;;;8.80;99.90;;;;;;4986547;28;20093;-79
2022/04/06 00:57:37;;;;;;;17.60;3.85;;;8.80;99.90;;;;;;4969022;28;20139;-78
2022/04/06 01:00:05;;;;;;;10.85;3.63;;;8.90;99.90;;;;;;4984949;28;20054;-78
2022/04/06 01:02:32;;;;;;;11.77;3.30;;;8.90;99.90;;;;;;4954939;28;20400;-78
2022/04/06 01:04:58;;;;;;;10.68;3.03;;;8.90;99.90;;;;;;4970168;28;20081;-78
2022/04/06 01:07:24;;;;;;;11.32;3.25;;;8.90;99.90;;;;;;4954083;28;20625;-77
2022/04/06 01:09:50;;;;;;;10.38;3.10;;;8.80;99.90;;;;;;4967685;28;20419;-78
2022/04/06 01:12:15;;;;;;;14.75;3.90;;;8.80;99.90;;;;;;4969624;28;20046;-78
2022/04/06 01:14:41;;;;;;;15.85;3.20;;;8.90;99.90;;;;;;4969686;28;20070;-78
2022/04/06 01:17:09;;;;;;;14.30;3.10;;;8.80;99.90;;;;;;4986143;28;20229;-78
2022/04/06 01:19:45;;;;;;;12.25;2.97;;;8.80;99.90;;;;;;4986873;28;20078;-78
2022/04/06 01:22:13;;;;;;;12.27;2.78;;;8.80;99.90;;;;;;4986154;28;20054;-78
2022/04/06 01:24:41;;;;;;;12.90;3.17;;;8.80;99.90;;;;;;4986477;28;20054;-78
2022/04/06 01:27:07;;;;;;;12.73;3.40;;;8.80;99.90;;;;;;4962954;28;20080;-78
2022/04/06 01:29:33;;;;;;;11.20;2.92;;;8.80;99.90;;;;;;4985305;28;20117;-78
2022/04/06 01:32:20;;;;;;;13.23;3.10;;;8.80;99.90;;;;;;4968976;28;20046;-78
2022/04/06 01:34:47;;;;;;;10.40;2.60;;;8.80;99.90;;;;;;4971268;28;20056;-78
2022/04/06 01:37:14;;;;;;;13.18;2.72;;;8.80;99.90;;;;;;4956582;28;20133;-79
2022/04/06 01:39:42;;;;;;;9.80;2.60;;;8.80;99.90;;;;;;4972495;28;20100;-82
2022/04/06 01:42:10;;;;;;;9.63;2.90;;;8.80;99.90;;;;;;4973737;28;20046;-80
2022/04/06 01:44:36;;;;;;;11.77;3.13;;;8.80;99.90;;;;;;5001307;28;20052;-79
2022/04/06 01:47:07;;;;;;;12.38;2.90;;;8.80;99.90;;;;;;4990674;28;20042;-79
2022/04/06 01:52:19;;;;;;;9.00;2.63;;;8.80;99.90;;;;;;4990283;28;20054;-79
2022/04/06 01:55:00;;;;;;;8.48;2.67;;;8.80;99.90;;;;;;4988892;28;20124;-79
2022/04/06 01:57:27;;;;;;;14.32;2.97;;;8.90;99.90;;;;;;4966396;28;20038;-78
2022/04/06 01:59:53;;;;;;;12.05;3.20;;;8.80;99.90;;;;;;4971076;28;20050;-80
2022/04/06 02:02:21;;;;;;;12.85;2.85;;;8.80;99.90;;;;;;4972023;28;20055;-81
2022/04/06 02:04:47;;;;;;;10.68;2.55;;;8.90;99.90;;;;;;4988084;28;20051;-80
2022/04/06 02:07:14;;;;;;;10.73;2.50;;;8.80;99.90;;;;;;4987402;28;20046;-80
2022/04/06 02:09:40;;;;;;;10.80;2.72;;;8.90;99.90;;;;;;4986510;28;20050;-80
2022/04/06 02:12:07;;;;;;;10.13;2.55;;;8.80;99.90;;;;;;4973080;28;20082;-80
2022/04/06 02:14:33;;;;;;;11.15;2.72;;;8.90;99.90;;;;;;4957943;28;20050;-81
2022/04/06 02:17:00;;;;;;;11.05;2.47;;;8.90;99.90;;;;;;4973678;28;20046;-80
2022/04/06 02:19:26;;;;;;;14.98;3.15;;;8.90;99.90;;;;;;4972443;28;20547;-77
2022/04/06 02:21:52;;;;;;;12.25;3.13;;;8.90;99.90;;;;;;4973285;28;20046;-77
2022/04/06 02:24:18;;;;;;;9.52;2.67;;;8.10;99.90;;;;;;4956376;28;20065;-78
2022/04/06 02:26:45;;;;;;;12.75;2.97;;;8.90;99.90;;;;;;4956168;28;20533;-78
2022/04/06 02:29:12;;;;;;;14.00;3.28;;;8.80;99.90;;;;;;4988781;28;20057;-78
2022/04/06 02:31:38;;;;;;;12.77;3.40;;;8.80;99.90;;;;;;4957019;28;20542;-78
2022/04/06 02:34:04;;;;;;;14.43;3.00;;;8.80;99.90;;;;;;4988717;28;20136;-77
2022/04/06 02:36:29;;;;;;;13.50;3.15;;;8.80;99.90;;;;;;4973581;28;20046;-78
2022/04/06 02:38:55;;;;;;;15.57;3.08;;;8.80;99.90;;;;;;4972149;28;20404;-78
2022/04/06 02:41:21;;;;;;;10.18;3.10;;;8.80;99.90;;;;;;4971101;28;20050;-78
2022/04/06 02:43:47;;;;;;;13.00;3.35;;;8.80;99.90;;;;;;4987486;28;20061;-78
2022/04/06 02:46:13;;;;;;;12.77;3.63;;;8.60;99.90;;;;;;4986225;28;20046;-78
2022/04/06 02:48:39;;;;;;;14.85;3.38;;;8.80;99.90;;;;;;4952530;28;20099;-78
2022/04/06 02:51:05;;;;;;;10.65;3.15;;;8.80;99.90;;;;;;4970911;28;20554;-78
2022/04/06 02:53:30;;;;;;;17.13;3.88;;;8.80;99.90;;;;;;4972325;28;20050;-78
2022/04/06 02:55:56;;;;;;;10.85;3.08;;;8.80;99.90;;;;;;4988231;28;20503;-81
2022/04/06 02:58:22;;;;;;;14.73;3.80;;;8.80;99.90;;;;;;4956147;28;20097;-80
2022/04/06 03:00:48;;;;;;;10.27;3.80;;;8.80;99.90;;;;;;4971328;28;20038;-80
2022/04/06 03:03:13;;;;;;;15.13;3.88;;;8.80;99.90;;;;;;4987811;28;20558;-80
2022/04/06 03:05:39;;;;;;;10.38;3.58;;;8.80;99.90;;;;;;4972296;28;20050;-80
2022/04/06 03:08:09;;;;;;;11.95;4.32;;;8.90;99.90;;;;;;4971705;28;20050;-80
2022/04/06 03:10:34;;;;;;;17.00;4.47;;;8.80;99.90;;;;;;4971647;28;20075;-80
2022/04/06 03:13:00;;;;;;;15.77;4.38;;;8.80;99.90;;;;;;4971509;28;20046;-79
2022/04/06 03:15:26;;;;;;;16.75;4.70;;;8.80;99.90;;;;;;4972234;28;20078;-80
2022/04/06 03:17:52;;;;;;;21.75;4.32;;;8.80;99.90;;;;;;4953529;28;20046;-80
2022/04/06 03:20:18;;;;;;;16.58;4.22;;;8.70;99.90;;;;;;4953479;28;20077;-80
2022/04/06 03:22:43;;;;;;;16.65;3.97;;;8.70;99.90;;;;;;4986784;28;20583;-80
2022/04/06 03:25:10;;;;;;;14.07;3.95;;;8.70;99.90;;;;;;4972645;28;20070;-80
2022/04/06 03:27:36;;;;;;;13.90;4.18;;;8.70;99.90;;;;;;4972199;28;20050;-80
2022/04/06 03:30:07;;;;;;;18.95;4.25;;;8.70;99.90;;;;;;4985279;28;20050;-80
2022/04/06 03:32:33;;;;;;;15.80;4.20;;;8.60;99.90;;;;;;4970417;28;20038;-80
2022/04/06 03:34:58;;;;;;;12.57;4.05;;;8.60;99.90;;;;;;4939432;28;20054;-80
2022/04/06 03:37:24;;;;;;;13.35;4.00;;;8.60;99.90;;;;;;4954380;28;20069;-79
2022/04/06 03:39:50;;;;;;;12.02;3.47;;;8.60;99.90;;;;;;4971008;28;20046;-80
2022/04/06 03:42:16;;;;;;;20.92;4.47;;;8.60;99.90;;;;;;4987889;28;20129;-80
2022/04/06 03:44:43;;;;;;;15.73;4.22;;;8.50;99.90;;;;;;4972435;28;20050;-80
2022/04/06 03:47:11;;;;;;;15.75;4.05;;;8.50;99.90;;;;;;4955193;28;20104;-81
2022/04/06 03:49:37;;;;;;;15.35;3.80;;;8.50;99.90;;;;;;4954292;28;20034;-80
2022/04/06 03:52:03;;;;;;;14.43;4.53;;;8.50;99.90;;;;;;4970280;28;20085;-80
2022/04/06 03:54:29;;;;;;;21.05;4.53;;;8.60;99.90;;;;;;4954259;28;20046;-79
2022/04/06 03:56:55;;;;;;;19.38;4.13;;;8.50;99.90;;;;;;4954811;28;20059;-79
2022/04/06 03:59:21;;;;;;;19.17;4.68;;;8.50;99.90;;;;;;4986876;28;20046;-80
2022/04/06 04:01:46;;;;;;;16.15;4.20;;;8.40;99.90;;;;;;4988378;28;20050;-80
2022/04/06 04:04:12;;;;;;;15.55;4.18;;;8.40;99.90;;;;;;4954854;28;20057;-80
2022/04/06 04:06:38;;;;;;;16.23;4.20;;;8.50;99.90;;;;;;4971207;28;20133;-78
2022/04/06 04:09:04;;;;;;;14.45;4.03;;;8.40;99.90;;;;;;4986298;28;20133;-79
2022/04/06 04:11:30;;;;;;;15.95;4.22;;;8.40;99.90;;;;;;4986428;28;20050;-78
2022/04/06 04:13:56;;;;;;;18.02;4.13;;;8.30;99.90;;;;;;4971852;28;20054;-78
2022/04/06 04:16:23;;;;;;;16.55;4.53;;;8.40;99.90;;;;;;4987619;28;20666;-78
2022/04/06 04:18:49;;;;;;;21.95;4.45;;;8.40;99.90;;;;;;4986880;28;20111;-78
2022/04/06 04:21:33;;;;;;;18.63;5.18;;;8.40;99.90;;;;;;4968935;28;20058;-78
2022/04/06 04:24:08;;;;;;;15.27;3.88;;;8.30;99.90;;;;;;4971613;28;20070;-78
2022/04/06 04:26:36;;;;;;;23.92;5.07;;;8.30;99.90;;;;;;4986895;28;20050;-78
2022/04/06 04:29:03;;;;;;;21.92;4.85;;;8.30;99.90;;;;;;4954195;28;20042;-78
2022/04/06 04:31:29;;;;;;;24.70;4.95;;;8.30;99.90;;;;;;4989068;28;20105;-78
2022/04/06 04:33:55;;;;;;;16.50;5.00;;;8.70;99.90;;;;;;4955839;28;20046;-78
2022/04/06 04:36:22;;;;;;;19.30;4.38;;;8.30;99.90;;;;;;4939675;28;20129;-81
2022/04/06 04:38:48;;;;;;;13.18;4.03;;;8.30;99.90;;;;;;4970983;28;20069;-80
2022/04/06 04:41:13;;;;;;;18.73;4.85;;;8.30;99.90;;;;;;4970859;28;20391;-80
2022/04/06 04:43:39;;;;;;;23.55;4.80;;;8.30;99.90;;;;;;4955010;28;20053;-81
2022/04/06 04:46:05;;;;;;;16.40;3.90;;;8.30;99.90;;;;;;4986584;28;20077;-81
2022/04/06 04:48:31;;;;;;;14.55;4.00;;;8.50;99.90;;;;;;4955159;28;20598;-80
2022/04/06 04:50:57;;;;;;;18.75;4.47;;;8.30;99.90;;;;;;4987243;28;20050;-81
2022/04/06 04:53:23;;;;;;;19.55;5.07;;;8.30;99.90;;;;;;4949505;28;20546;-82
2022/04/06 04:55:49;;;;;;;20.13;5.18;;;8.30;99.90;;;;;;4985266;28;20089;-80
2022/04/06 04:58:15;;;;;;;21.48;4.85;;;8.30;99.90;;;;;;4985445;28;20046;-81
2022/04/06 05:00:41;;;;;;;17.10;4.32;;;8.20;99.90;;;;;;4968891;28;20050;-79
2022/04/06 05:03:08;;;;;;;22.92;4.60;;;8.20;99.90;;;;;;4951534;28;20054;-78
2022/04/06 05:05:35;;;;;;;14.75;4.07;;;8.20;99.90;;;;;;4969211;28;20052;-79
2022/04/06 05:08:00;;;;;;;18.77;4.30;;;8.20;99.90;;;;;;4968205;28;20054;-78
2022/04/06 05:10:27;;;;;;;18.17;4.70;;;8.20;99.90;;;;;;4956103;28;20054;-79
2022/04/06 05:12:53;;;;;;;19.08;4.43;;;8.20;99.90;;;;;;4988094;28;20045;-78
2022/04/06 05:15:19;;;;;;;19.50;4.45;;;8.20;99.90;;;;;;4957157;28;20057;-80
2022/04/06 05:17:48;;;;;;;18.55;4.13;;;8.20;99.90;;;;;;4972038;28;20052;-80
2022/04/06 05:20:14;;;;;;;18.63;4.72;;;8.20;99.90;;;;;;4969857;28;20058;-80
2022/04/06 05:22:40;;;;;;;17.25;4.68;;;8.20;99.90;;;;;;4989162;28;20054;-80
2022/04/06 05:25:10;;;;;;;20.90;4.70;;;8.20;99.90;;;;;;4950691;28;20133;-80
2022/04/06 05:27:56;;;;;;;20.50;3.92;;;8.20;99.90;;;;;;4989042;28;20129;-80
2022/04/06 05:30:23;;;;;;;17.98;4.13;;;8.20;99.90;;;;;;4987739;28;20050;-80
2022/04/06 05:32:52;;;;;;;18.67;4.60;;;8.20;99.90;;;;;;4988542;28;20046;-78
2022/04/06 05:35:18;;;;;;;21.63;4.10;;;8.30;99.90;;;;;;4970832;28;20054;-79
2022/04/06 05:37:45;;;;;;;23.88;4.85;;;8.20;99.90;;;;;;4955389;28;20054;-81
2022/04/06 05:40:13;;;;;;;15.98;3.80;;;8.20;99.90;;;;;;4987634;28;20069;-81
2022/04/06 05:42:40;;;;;;;21.88;4.57;;;8.30;99.90;;;;;;4990371;28;20054;-81
2022/04/06 05:45:06;;;;;;;15.75;4.20;;;8.20;99.90;;;;;;4969590;28;20061;-80
2022/04/06 05:47:33;;;;;;;16.35;3.80;;;8.20;99.90;;;;;;4956605;28;20082;-80
2022/04/06 05:50:00;;;;;;;16.42;4.25;;;8.20;99.90;;;;;;4972313;28;20100;-82
2022/04/06 05:52:25;;;;;;;21.60;3.85;;;8.20;99.90;;;;;;4988649;28;20051;-81
2022/04/06 05:54:51;;;;;;;14.80;3.70;;;8.20;99.90;;;;;;4957470;28;20076;-79
2022/04/06 05:57:18;;;;;;;15.02;3.83;;;8.20;99.90;;;;;;4957671;28;20374;-78
2022/04/06 05:59:44;;;;;;;19.10;3.97;;;8.20;99.90;;;;;;4971398;28;20443;-79
2022/04/06 06:02:10;;;;;;;17.60;3.35;;;8.20;99.90;;;;;;4987811;28;20058;-79
2022/04/06 06:04:38;;;;;;;15.02;3.20;;;8.20;99.90;;;;;;4989362;28;20050;-79
2022/04/06 06:07:07;;;;;;;15.15;3.63;;;8.20;99.90;;;;;;4972948;28;20050;-79
2022/04/06 06:09:34;;;;;;;18.23;3.70;;;8.20;99.90;;;;;;4987203;28;20057;-79
2022/04/06 06:12:00;;;;;;;19.00;3.35;;;8.20;99.90;;;;;;4972125;28;20050;-79
2022/04/06 06:14:27;;;;;;;16.10;3.60;;;8.20;99.90;;;;;;4971638;28;20469;-78
2022/04/06 06:16:53;;;;;;;14.65;3.60;;;8.30;99.90;;;;;;4950030;28;20069;-79
2022/04/06 06:19:19;;;;;;;13.43;3.15;;;8.30;99.90;;;;;;4952467;28;20070;-79
2022/04/06 06:21:45;;;;;;;10.27;2.88;;;8.30;99.90;;;;;;4988013;28;20146;-81
2022/04/06 06:24:11;;;;;;;17.02;3.58;;;8.20;99.90;;;;;;4959492;28;20125;-80
2022/04/06 06:26:39;;;;;;;16.83;3.63;;;8.20;99.90;;;;;;4965005;28;20055;-81
2022/04/06 06:29:05;;;;;;;15.45;3.38;;;8.30;99.90;;;;;;4973935;28;20061;-81
2022/04/06 06:31:31;;;;;;;20.50;3.60;;;8.30;99.90;;;;;;4989615;28;20884;-80
2022/04/06 06:34:00;;;;;;;17.75;4.28;;;8.30;99.90;;;;;;4974564;28;20042;-80
2022/04/06 06:36:27;;;;;;;21.15;3.90;;;8.30;99.90;;;;;;4989696;28;20050;-80
2022/04/06 06:38:54;;;;;;;13.70;3.00;;;8.30;99.90;;;;;;4960894;28;20096;-81
2022/04/06 06:41:21;;;;;;;16.80;3.40;;;8.30;99.90;;;;;;4987844;28;20672;-80
2022/04/06 06:43:48;;;;;;;18.52;3.60;;;8.30;99.90;;;;;;4990682;28;20081;-80
2022/04/06 06:46:18;;;;;;;16.77;3.88;;;8.30;99.90;;;;;;4972541;28;20050;-81
2022/04/06 06:48:45;;;;;;;12.77;3.40;;;8.30;99.90;;;;;;4965577;28;20057;-82
2022/04/06 06:51:11;;;;;;;21.67;4.05;;;8.80;99.90;;;;;;4957621;28;20050;-81
2022/04/06 06:53:37;;;;;;;17.35;3.85;;;8.30;99.90;;;;;;4989466;28;20042;-82
2022/04/06 06:56:03;;;;;;;21.50;4.28;;;8.40;99.90;;;;;;4959203;28;20054;-83
2022/04/06 06:58:28;;;;;;;12.95;3.15;;;8.40;99.90;;;;;;4940418;28;20042;-81
2022/04/06 07:00:54;;;;;;;18.38;3.67;;;8.40;99.90;;;;;;4973202;28;20514;-81
2022/04/06 07:03:20;;;;;;;16.20;3.33;;;8.30;99.90;;;;;;4989775;28;20078;-81
2022/04/06 07:05:46;;;;;;;22.48;4.30;;;8.40;99.90;;;;;;4973609;28;20381;-80
2022/04/06 07:08:11;;;;;;;14.52;3.42;;;8.30;99.90;;;;;;4949091;28;20042;-81
2022/04/06 07:10:37;;;;;;;14.27;3.80;;;8.30;99.90;;;;;;4956028;28;20050;-81
2022/04/06 07:13:03;;;;;;;16.15;4.13;;;8.30;99.90;;;;;;4964742;28;20078;-82
2022/04/06 07:15:29;;;;;;;16.55;3.65;;;8.30;99.90;;;;;;5005793;28;20130;-80
2022/04/06 07:17:58;;;;;;;15.95;3.40;;;8.30;99.90;;;;;;4973009;28;20054;-80
2022/04/06 07:20:27;;;;;;;15.65;4.05;;;8.30;99.90;;;;;;4961741;28;20097;-80
2022/04/06 07:22:53;;;;;;;23.13;4.70;;;8.30;99.90;;;;;;4965969;28;20052;-82
2022/04/06 07:25:20;;;;;;;19.33;3.58;;;8.20;99.90;;;;;;4967111;28;20062;-80
2022/04/06 07:27:46;;;;;;;17.73;3.38;;;8.20;99.90;;;;;;4968149;28;20104;-80
2022/04/06 07:30:13;;;;;;;13.05;3.30;;;8.20;99.90;;;;;;4965880;28;20050;-80
2022/04/06 07:32:39;;;;;;;18.98;3.70;;;8.20;99.90;;;;;;4966729;28;20042;-81
2022/04/06 07:35:07;;;;;;;15.07;3.38;;;8.20;99.90;;;;;;4968974;28;20054;-80
2022/04/06 07:37:37;;;;;;;16.02;3.42;;;8.20;99.90;;;;;;4967589;28;20580;-81
2022/04/06 07:40:04;;;;;;;15.00;3.10;;;8.30;99.90;;;;;;4967212;28;20070;-81
2022/04/06 07:42:30;;;;;;;15.15;3.28;;;8.30;99.90;;;;;;4982293;28;20046;-81
2022/04/06 07:44:56;;;;;;;15.52;3.10;;;8.40;99.90;;;;;;4950769;28;20699;-80
2022/04/06 07:47:27;;;;;;;15.57;2.80;;;8.40;99.90;;;;;;4966204;28;20055;-81
2022/04/06 07:49:53;;;;;;;13.10;3.10;;;8.40;99.90;;;;;;4967423;28;20046;-80
2022/04/06 07:52:22;;;;;;;15.15;3.50;;;8.50;99.90;;;;;;4982907;28;20050;-80
2022/04/06 07:54:47;;;;;;;14.75;3.38;;;8.50;99.90;;;;;;4983623;28;20048;-81
2022/04/06 07:57:13;;;;;;;12.70;3.00;;;8.50;99.90;;;;;;4983425;28;20488;-79
2022/04/06 07:59:39;;;;;;;13.70;2.90;;;7.90;99.90;;;;;;4964683;28;20041;-80
2022/04/06 08:02:05;;;;;;;16.63;3.45;;;8.60;99.90;;;;;;4982603;28;20046;-80
2022/04/06 08:04:31;;;;;;;13.05;3.08;;;8.70;99.90;;;;;;4983290;28;20049;-80
2022/04/06 08:06:57;;;;;;;15.05;3.05;;;8.80;99.90;;;;;;4952117;28;20219;-85
2022/04/06 08:09:23;;;;;;;16.17;3.05;;;8.80;99.90;;;;;;4950849;28;20088;-80
2022/04/06 08:11:50;;;;;;;14.23;2.75;;;8.90;99.90;;;;;;4951963;28;20046;-80
2022/04/06 08:14:15;;;;;;;12.93;2.83;;;8.90;99.90;;;;;;4982921;28;20052;-80
2022/04/06 08:16:41;;;;;;;21.52;3.75;;;9.00;99.90;;;;;;4951621;28;20046;-80
2022/04/06 08:19:10;;;;;;;12.63;2.63;;;9.00;99.90;;;;;;4967409;28;20197;-81
2022/04/06 08:21:36;;;;;;;11.13;2.70;;;9.00;99.90;;;;;;4982204;28;20792;-81
2022/04/06 08:24:02;;;;;;;14.40;2.90;;;9.10;99.90;;;;;;4967839;28;20042;-81
2022/04/06 08:26:28;;;;;;;11.98;2.70;;;9.10;99.90;;;;;;4985196;28;20045;-80
2022/04/06 08:28:54;;;;;;;17.13;3.58;;;9.20;99.90;;;;;;4982097;28;20155;-80
2022/04/06 08:31:20;;;;;;;11.43;2.80;;;9.30;99.90;;;;;;4967505;28;20054;-81
2022/04/06 08:33:46;;;;;;;13.60;3.15;;;9.50;99.90;;;;;;4951234;28;20057;-78
2022/04/06 08:36:12;;;;;;;14.38;3.55;;;9.60;99.90;;;;;;4982370;28;20042;-78
2022/04/06 08:38:38;;;;;;;13.63;3.17;;;10.00;99.90;;;;;;4984667;28;20247;-78
2022/04/06 08:41:06;;;;;;;16.10;3.13;;;9.80;99.90;;;;;;4983489;28;20483;-78
2022/04/06 08:43:32;;;;;;;15.68;3.42;;;9.90;99.90;;;;;;4963723;28;20133;-78
2022/04/06 08:45:58;;;;;;;16.17;3.25;;;10.20;99.90;;;;;;4952324;28;20129;-78
2022/04/06 08:48:30;;;;;;;10.93;2.50;;;10.40;99.90;;;;;;4949626;28;20039;-78
2022/04/06 08:51:00;;;;;;;14.38;2.97;;;10.60;99.90;;;;;;4981097;28;20168;-78
2022/04/06 08:53:26;;;;;;;12.07;2.67;;;10.90;99.90;;;;;;4983020;28;20049;-78
2022/04/06 08:55:52;;;;;;;16.30;3.20;;;11.00;99.90;;;;;;4960775;28;20050;-78
2022/04/06 08:58:18;;;;;;;9.93;2.42;;;11.10;99.90;;;;;;4949510;28;20046;-78
2022/04/06 09:00:44;;;;;;;14.38;3.33;;;11.10;99.90;;;;;;4982801;28;20053;-78
2022/04/06 09:03:11;;;;;;;11.13;4.00;;;11.10;99.90;;;;;;4966474;28;20042;-78
2022/04/06 09:05:37;;;;;;;10.80;2.90;;;10.90;99.90;;;;;;4981557;28;20062;-78
2022/04/06 09:08:04;;;;;;;12.88;3.85;;;10.80;99.90;;;;;;4967458;28;20062;-78
2022/04/06 09:10:35;;;;;;;16.17;3.63;;;10.80;99.90;;;;;;4981750;28;20061;-79
2022/04/06 09:13:14;;;;;;;12.75;3.05;;;10.70;99.90;;;;;;4980786;28;20054;-78
2022/04/06 09:15:41;;;;;;;15.25;3.47;;;10.70;99.90;;;;;;4966606;28;20472;-78
2022/04/06 09:18:07;;;;;;;11.38;3.75;;;10.60;99.90;;;;;;4966906;28;20046;-78
2022/04/06 09:20:33;;;;;;;12.73;3.97;;;10.90;99.90;;;;;;4980741;28;20814;-78
2022/04/06 09:23:01;;;;;;;16.65;3.28;;;10.40;99.90;;;;;;4950514;28;20133;-79
2022/04/06 09:25:38;;;;;;;14.70;3.53;;;10.50;99.90;;;;;;4949891;28;20061;-78
2022/04/06 09:28:16;;;;;;;14.77;3.47;;;10.50;99.90;;;;;;4967720;28;20129;-79
2022/04/06 09:30:44;;;;;;;12.77;3.47;;;10.60;99.90;;;;;;4980185;28;20077;-79
2022/04/06 09:33:14;;;;;;;14.82;3.38;;;10.70;99.90;;;;;;4982342;28;20058;-79
2022/04/06 09:35:41;;;;;;;12.70;3.38;;;10.80;99.90;;;;;;4981336;28;20037;-78
2022/04/06 09:38:19;;;;;;;10.52;2.72;;;11.10;99.90;;;;;;4966028;28;20038;-79
2022/04/06 09:40:45;;;;;;;15.52;3.47;;;11.10;99.90;;;;;;4980704;28;20526;-79
2022/04/06 09:43:29;;;;;;;12.52;3.10;;;11.00;99.90;;;;;;4998369;28;20531;-79
2022/04/06 09:48:54;;;;;;;16.60;3.63;;;11.20;99.90;;;;;;4981369;28;20042;-79
2022/04/06 09:51:21;;;;;;;16.95;3.53;;;11.10;99.90;;;;;;4980565;28;20069;-79
2022/04/06 09:53:49;;;;;;;14.32;3.50;;;11.00;99.90;;;;;;4946382;28;20050;-79
2022/04/06 09:56:17;;;;;;;18.00;3.90;;;10.90;99.90;;;;;;4990200;28;20057;-79
2022/04/06 09:58:45;;;;;;;14.90;3.65;;;10.90;99.90;;;;;;4973928;28;20046;-79
2022/04/06 10:01:15;;;;;;;19.70;3.65;;;10.70;99.90;;;;;;4990675;28;20104;-78
2022/04/06 10:03:48;;;;;;;12.52;3.20;;;10.70;99.90;;;;;;4971927;28;20066;-79
2022/04/06 10:06:14;;;;;;;23.50;4.25;;;10.80;99.90;;;;;;4968620;28;20053;-79
2022/04/06 10:08:41;;;;;;;15.70;3.08;;;10.90;99.90;;;;;;4986213;28;20078;-79
2022/04/06 10:11:07;;;;;;;13.77;3.58;;;10.90;99.90;;;;;;4999338;28;20427;-79
2022/04/06 10:13:36;;;;;;;17.05;3.90;;;10.80;99.90;;;;;;4988298;28;20046;-79
2022/04/06 10:16:02;;;;;;;14.75;3.05;;;10.80;99.90;;;;;;4972484;28;20046;-78
2022/04/06 10:18:32;;;;;;;13.88;3.78;;;10.70;99.90;;;;;;4940164;28;20056;-80
2022/04/06 10:21:12;;;;;;;16.73;3.92;;;10.70;99.90;;;;;;4971113;28;20073;-80
2022/04/06 10:23:48;;;;;;;18.95;3.95;;;10.90;99.90;;;;;;4988281;28;20125;-79
2022/04/06 10:26:31;;;;;;;19.55;4.10;;;11.10;99.90;;;;;;4987794;28;20043;-80
2022/04/06 10:28:57;;;;;;;17.27;4.43;;;11.20;99.90;;;;;;4989156;28;20101;-80
2022/04/06 10:31:27;;;;;;;14.63;3.45;;;11.40;99.90;;;;;;4954920;28;20061;-79
2022/04/06 10:34:28;;;;;;;18.02;3.83;;;11.60;99.90;;;;;;4955598;28;20053;-78
2022/04/06 10:37:16;;;;;;;15.85;3.97;;;11.90;99.90;;;;;;5000541;28;20061;-79
2022/04/06 10:39:51;;;;;;;17.48;4.15;;;12.10;99.90;;;;;;4971616;28;20065;-85
2022/04/06 10:42:37;;;;;;;13.90;4.40;;;12.20;99.90;;;;;;4989237;28;20116;-84
2022/04/06 10:45:24;;;;;;;16.35;4.10;;;12.20;99.90;;;;;;4988629;28;20046;-79
2022/04/06 10:48:14;;;;;;;16.25;3.80;;;12.20;99.90;;;;;;4972456;28;20088;-78
2022/04/06 10:50:45;;;;;;;15.63;4.30;;;12.10;99.90;;;;;;4965055;28;20046;-78
2022/04/06 10:53:32;;;;;;;18.52;4.20;;;12.10;99.90;;;;;;4988030;28;20492;-79
2022/04/06 10:56:07;;;;;;;12.55;3.53;;;12.00;99.90;;;;;;4963376;28;20108;-79
2022/04/06 10:58:57;;;;;;;14.70;3.53;;;12.00;99.90;;;;;;4987325;28;20043;-77
2022/04/06 11:01:31;;;;;;;17.42;3.90;;;12.00;99.90;;;;;;4985701;28;20086;-80
2022/04/06 11:03:59;;;;;;;16.65;3.90;;;12.00;99.90;;;;;;4988636;28;20092;-78
2022/04/06 11:06:44;;;;;;;11.75;3.90;;;11.90;99.90;;;;;;4971288;28;20073;-79
2022/04/06 11:12:22;;;;;;;14.90;3.95;;;11.90;99.90;;;;;;4988393;28;20050;-79
2022/04/06 11:14:49;;;;;;;12.55;4.10;;;12.00;99.90;;;;;;4955331;28;20595;-79
2022/04/06 11:17:43;;;;;;;18.08;4.20;;;11.90;99.90;;;;;;4955718;28;20132;-79
2022/04/06 11:20:18;;;;;;;17.23;4.03;;;11.90;99.90;;;;;;4983715;28;20128;-79
2022/04/06 11:22:53;;;;;;;17.15;3.80;;;11.90;99.90;;;;;;4985627;28;20054;-80
2022/04/06 11:25:30;;;;;;;20.48;4.15;;;12.00;99.90;;;;;;4971418;28;20046;-79
2022/04/06 11:28:12;;;;;;;13.60;3.47;;;11.90;99.90;;;;;;4969866;28;20511;-80
2022/04/06 11:30:43;;;;;;;20.67;4.55;;;11.80;99.90;;;;;;4985904;28;20046;-79
2022/04/06 11:33:09;;;;;;;12.70;3.63;;;11.90;99.90;;;;;;4971358;28;20094;-79
2022/04/06 11:35:37;;;;;;;21.92;4.57;;;11.90;99.90;;;;;;4971085;28;20046;-80
2022/04/06 11:38:04;;;;;;;18.38;4.30;;;11.90;99.90;;;;;;4971739;28;20050;-79
2022/04/06 11:40:30;;;;;;;19.05;4.40;;;11.80;99.90;;;;;;4955897;28;20046;-80
2022/04/06 11:43:04;;;;;;;18.33;4.32;;;11.70;99.90;;;;;;4971101;28;20500;-79
2022/04/06 11:45:40;;;;;;;14.85;4.03;;;11.80;99.90;;;;;;4963680;28;20137;-79
2022/04/06 11:48:07;;;;;;;16.70;4.18;;;11.70;99.90;;;;;;4972473;28;20054;-79
2022/04/06 11:50:38;;;;;;;17.08;4.47;;;11.70;99.90;;;;;;4971775;28;20065;-79
2022/04/06 11:53:06;;;;;;;18.35;4.25;;;11.70;99.90;;;;;;4955626;28;20050;-79
2022/04/06 11:55:48;;;;;;;21.52;4.63;;;11.80;99.90;;;;;;4971814;28;20411;-79
2022/04/06 11:58:30;;;;;;;18.98;4.32;;;11.80;99.90;;;;;;4969706;28;20070;-79
2022/04/06 12:01:04;;;;;;;15.30;3.97;;;11.70;99.90;;;;;;4987436;28;20136;-78
2022/04/06 12:03:35;;;;;;;19.60;4.60;;;11.60;99.90;;;;;;4965020;28;20078;-79
2022/04/06 12:06:03;;;;;;;23.20;4.50;;;11.60;99.90;;;;;;4972047;28;20038;-78
2022/04/06 12:08:31;;;;;;;18.50;4.30;;;11.50;99.90;;;;;;4987376;28;20572;-78
2022/04/06 12:10:57;;;;;;;22.48;4.38;;;11.50;99.90;;;;;;4969648;28;20129;-78
2022/04/06 12:13:26;;;;;;;23.08;4.65;;;11.50;99.90;;;;;;4988036;28;20699;-79
2022/04/06 12:15:54;;;;;;;17.75;4.20;;;11.40;99.90;;;;;;4987597;28;20065;-79
2022/04/06 12:18:21;;;;;;;15.93;4.43;;;11.40;99.90;;;;;;4939262;28;20100;-79
2022/04/06 12:20:48;;;;;;;18.35;4.90;;;11.40;99.90;;;;;;4969701;28;20064;-79
2022/04/06 12:23:15;;;;;;;22.33;4.72;;;11.40;99.90;;;;;;4987807;28;20054;-78
2022/04/06 12:25:41;;;;;;;16.65;4.55;;;11.30;99.90;;;;;;4964575;28;20046;-78
2022/04/06 12:28:23;;;;;;;18.92;4.30;;;11.30;99.90;;;;;;4987536;28;20042;-78
2022/04/06 12:31:08;;;;;;;18.65;4.30;;;11.20;99.90;;;;;;4947432;28;20510;-78
2022/04/06 12:33:38;;;;;;;18.52;4.60;;;10.80;99.90;;;;;;4971519;28;20047;-81
2022/04/06 12:36:14;;;;;;;16.73;4.43;;;11.20;99.90;;;;;;4988226;28;20262;-79
2022/04/06 12:38:41;;;;;;;;;;;11.20;99.90;;;;;;4984656;28;20042;-80
2022/04/06 12:41:12;;;;;;;16.58;4.15;;;11.20;99.90;;;;;;4969977;28;20363;-79
2022/04/06 12:43:40;;;;;;;23.33;5.15;;;11.20;99.90;;;;;;4969498;28;20399;-79
2022/04/06 12:46:06;;;;;;;17.95;4.15;;;11.20;99.90;;;;;;4969491;28;20049;-80
2022/04/06 12:48:31;;;;;;;15.38;3.85;;;11.20;99.90;;;;;;4985657;28;20053;-80
2022/04/06 12:50:57;;;;;;;20.73;4.13;;;11.20;99.90;;;;;;4969728;28;20080;-79
2022/04/06 12:53:23;;;;;;;17.35;3.72;;;11.20;99.90;;;;;;4970545;28;20579;-78
2022/04/06 12:56:08;;;;;;;18.17;4.00;;;11.20;99.90;;;;;;4916875;28;20100;-79
2022/04/06 12:58:34;;;;;;;15.93;4.30;;;11.20;99.90;;;;;;4986657;28;20046;-80